KDUXKSKX

Guest
Details From KDUX - MOORE CO
To KSKX - Taos Rgnl
Flight Number -
Tags generated
Created
Modified
Stats Distance 223 nm / 412 km
Max Altitude 28,900 ft / 8,809 m
Waypoints 4
Social Downloads 2
Likes 0
Share VATSIM

Download

Looking for another format? Having issues loading an existing format? Contact us
Advertisement - Login to hide

Notes

Basic altitude profile: - Ascent Rate: 2500ft/min - Ascent Speed: 250kts - Cruise Altitude: 800000ft - Cruise Speed: 420kts - Descent Rate: 1500ft/min - Descent Speed: 250kts Options: - Use NATs: yes - Use PACOTS: yes - Use low airways: no - Use high airways: yes

Route

KDUX TCC J76 FTI KSKX

ID Type Via Altitude Latitude Longitude Leg Dist Tot Dist Heading (true) Name
O KDUX APT - 0 ft / 0 m 35.85827˚ -102.01300˚ - 0 nm - MOORE CO
TCC VOR - 28,900 ft / 8,809 m 35.18219˚ -103.59858˚ 87 nm 87 nm 243° / 242° TUCUMCARI VORTAC
FTI VOR J76 (AWY-HI) 18,000 ft / 5,486 m 35.65756˚ -105.13558˚ 80 nm 167 nm 291° / 290° FORT UNION VORTAC
O KSKX APT - 0 ft / 0 m 36.45818˚ -105.67243˚ 54 nm 222 nm 332° / 331° Taos Rgnl

Altitude Profile

Advertisement - Login to hide

Weather


0- 5 10 15 20 25 30 35+ Temperature / ° C

Clouds and Precipitation
Forecast for 2017-12-12 12:00 UTC. Updated an hour ago

Ground ~20,000 ft ~40,000 ft Winds

KDUX

Details ICAO KDUX
Name MOORE CO
Region United States
Timezone America/Chicago (UTC-6.0)
Stats Elevation 3,705 ft / 1,129 m (AMSL)
Location 35.858268° -102.012996°
Runways 2
Magnetic Variation 6.363° E

METAR

KDUX 120835Z AUTO 34004KT 10SM CLR M03/M12 A3046 RMK AO2 T10341125

Decode

TAF

Not found

Departure Runways

ID Width Length Bearing (true) Bearing (mag) Surface Threshold Offset Overrun Length
01 75 ft / 23 m 5,482 ft / 1,671 m 23.05° 16.69° Asphalt 0 ft / 0 m 0 ft / 0 m
14 60 ft / 18 m 3,103 ft / 946 m 151.67° 145.31° Asphalt 0 ft / 0 m 0 ft / 0 m
19 75 ft / 23 m 5,482 ft / 1,671 m 203.06° 196.70° Asphalt 0 ft / 0 m 0 ft / 0 m
32 60 ft / 18 m 3,103 ft / 946 m 331.67° 325.31° Asphalt 0 ft / 0 m 0 ft / 0 m

KSKX

Details ICAO KSKX
Name Taos Rgnl
Region United States
Timezone America/Denver (UTC-7.0)
Stats Elevation 7,091 ft / 2,161 m (AMSL)
Location 36.458182° -105.672425°
Runways 1
Magnetic Variation 8.255° E

METAR

KSKX 120756Z AUTO 36004KT 10SM CLR M06/M18 A3052 RMK AO2 SLP348 T10611178 FZRANO $

Decode

TAF

Not found

Destination Runways

ID Width Length Bearing (true) Bearing (mag) Surface Threshold Offset Overrun Length
04 75 ft / 23 m 5,794 ft / 1,766 m 56.03° 47.78° Asphalt 0 ft / 0 m 0 ft / 0 m
22 75 ft / 23 m 5,794 ft / 1,766 m 236.04° 227.79° Asphalt 0 ft / 0 m 0 ft / 0 m

Popular Alternatives